West Brooklyn, Illinois
Current Conditions -  °F | °C
As of 4:35 PM on Saturday 25 Oct 2014 (Local Time) from KRPJ Reporting Station
Clear Clear  
Wind Chill: 69°   Ceiling: Unl
Heat Index: 69°   Visibility: 10mi
Dew Point: 31°   Wind: 16mph
Humidity: 24%   Direction: 300°WNW
Pressure: 29.96"   Gusts: 23mph
Location:  41.69°N, 89.15°W
Report Text: KRPJ 252135Z AUTO 30014G20KT 10SM CLR 21/M01 A2996 RMK AO2 T02061007
Loading
Personal Weather Stations






























Interactive Weather Map
Tropical Storm Tracking
New forecast layout! Learn more

10-Day Weather Forecast

Advertisements
Track Severe Weather on mobile